Time;durP1;ratioP1;P1;durP2;ratioP2;P2;SDS_P1;SDS_P2;PMS_P1;PMS_P2;Temp;Humidity;BMP_temperature;BMP_pressure;BME280_temperature;BME280_humidity;BME280_pressure;Samples;Min_cycle;Max_cycle;Signal;HPM_P1;HPM_P2
2024/04/02 03:31:03;;;;;;;0.63;0.32;;;15.30;99.90;;;;;;5671051;23;20048;-80
2024/04/02 03:33:30;;;;;;;1.73;0.40;;;15.30;99.90;;;;;;4891308;29;20450;-80
2024/04/02 03:36:06;;;;;;;0.93;0.43;;;15.30;99.90;;;;;;4899880;29;20059;-80
2024/04/02 03:38:32;;;;;;;0.75;0.40;;;15.30;99.90;;;;;;4908597;29;20033;-80
2024/04/02 03:41:14;;;;;;;1.23;0.45;;;15.30;99.90;;;;;;4886395;29;20029;-80
2024/04/02 03:43:44;;;;;;;0.90;0.52;;;15.30;99.90;;;;;;4888543;29;20064;-80
2024/04/02 03:46:10;;;;;;;;;;;15.30;99.90;;;;;;4895891;29;20367;-80
2024/04/02 03:48:36;;;;;;;0.95;0.50;;;15.30;99.90;;;;;;4903228;29;19959;-80
2024/04/02 03:51:02;;;;;;;1.00;0.52;;;15.30;99.90;;;;;;4880571;29;20019;-80
2024/04/02 03:53:28;;;;;;;0.70;0.40;;;15.30;99.90;;;;;;4895235;29;20037;-80
2024/04/02 03:56:00;;;;;;;0.82;0.50;;;15.30;99.90;;;;;;4881667;29;20032;-81
2024/04/02 03:58:27;;;;;;;1.10;0.50;;;15.30;99.90;;;;;;4887708;29;20029;-81
2024/04/02 04:00:56;;;;;;;1.73;0.65;;;15.30;99.90;;;;;;4875874;29;20137;-80
2024/04/02 04:03:26;;;;;;;1.48;0.50;;;15.30;99.90;;;;;;4891625;29;20036;-81
2024/04/02 04:06:02;;;;;;;1.75;0.80;;;15.30;99.90;;;;;;4903536;29;20032;-81
2024/04/02 04:08:32;;;;;;;2.40;0.80;;;15.30;99.90;;;;;;4880278;29;20043;-82
2024/04/02 04:10:58;;;;;;;2.25;0.70;;;15.30;99.90;;;;;;4887933;29;20400;-81
2024/04/02 04:13:24;;;;;;;0.98;0.57;;;15.30;99.90;;;;;;4895397;29;20044;-80
2024/04/02 04:15:54;;;;;;;1.92;0.60;;;15.30;99.90;;;;;;4875827;29;20025;-80
2024/04/02 04:18:21;;;;;;;1.25;0.50;;;15.30;99.90;;;;;;4879911;29;20029;-80
2024/04/02 04:20:58;;;;;;;1.00;0.65;;;15.30;99.90;;;;;;4881806;29;20519;-81
2024/04/02 04:23:24;;;;;;;2.10;0.60;;;15.30;99.90;;;;;;4883265;29;20036;-81
2024/04/02 04:26:01;;;;;;;1.38;0.57;;;15.30;99.90;;;;;;4897996;29;20557;-81
2024/04/02 04:28:27;;;;;;;0.73;0.57;;;15.30;99.90;;;;;;4883128;29;20033;-81
2024/04/02 04:30:58;;;;;;;1.90;0.60;;;15.30;99.90;;;;;;4890156;29;20037;-81
2024/04/02 04:33:24;;;;;;;2.00;0.60;;;15.30;99.90;;;;;;4883210;29;20044;-81
2024/04/02 04:35:50;;;;;;;2.88;0.60;;;15.30;99.90;;;;;;4894826;29;20117;-81
2024/04/02 04:38:16;;;;;;;1.48;0.70;;;15.30;99.90;;;;;;4879425;29;20025;-81
2024/04/02 04:40:43;;;;;;;1.15;0.60;;;15.30;99.90;;;;;;4894708;29;20035;-81
2024/04/02 04:43:10;;;;;;;1.10;0.45;;;15.20;99.90;;;;;;4878940;29;20036;-80
2024/04/02 04:45:35;;;;;;;1.80;0.70;;;15.20;99.90;;;;;;4880138;29;20124;-81
2024/04/02 04:48:06;;;;;;;1.35;0.50;;;15.30;99.90;;;;;;4880388;29;20056;-81
2024/04/02 04:50:31;;;;;;;;;;;15.30;99.90;;;;;;4879203;29;20033;-81
2024/04/02 04:52:57;;;;;;;1.80;0.70;;;15.30;99.90;;;;;;4898071;29;19959;-81
2024/04/02 04:55:22;;;;;;;1.67;0.60;;;15.20;99.90;;;;;;4880209;29;20033;-81
2024/04/02 04:57:48;;;;;;;1.20;0.68;;;15.20;99.90;;;;;;4896144;29;20025;-80
2024/04/02 05:00:14;;;;;;;1.50;0.68;;;15.30;99.90;;;;;;4880736;29;20034;-81
2024/04/02 05:02:39;;;;;;;1.15;0.50;;;15.30;99.90;;;;;;4907793;29;20032;-81
2024/04/02 05:05:06;;;;;;;1.65;0.60;;;15.20;99.90;;;;;;4887712;29;20056;-81
2024/04/02 05:07:32;;;;;;;0.90;0.60;;;15.30;99.90;;;;;;4880038;29;20047;-81
2024/04/02 05:09:57;;;;;;;2.45;0.60;;;15.20;99.90;;;;;;4891714;29;20752;-80
2024/04/02 05:12:23;;;;;;;1.98;0.65;;;15.20;99.90;;;;;;4908787;29;20033;-81
2024/04/02 05:14:49;;;;;;;1.55;0.70;;;15.30;99.90;;;;;;4879460;29;20423;-81
2024/04/02 05:17:14;;;;;;;2.28;0.60;;;15.20;99.90;;;;;;4887707;29;20146;-80
2024/04/02 05:19:40;;;;;;;1.73;0.77;;;15.30;99.90;;;;;;4895275;29;20040;-81
2024/04/02 05:22:06;;;;;;;1.52;0.65;;;15.20;99.90;;;;;;4893830;29;20091;-81
2024/04/02 05:24:33;;;;;;;2.50;0.77;;;15.20;99.90;;;;;;4893772;29;20080;-81
2024/04/02 05:26:59;;;;;;;2.40;0.80;;;15.20;99.90;;;;;;4901561;29;20029;-81
2024/04/02 05:29:25;;;;;;;2.65;0.80;;;15.30;99.90;;;;;;4886388;29;20589;-81
2024/04/02 05:31:51;;;;;;;1.95;0.80;;;15.20;99.90;;;;;;4885469;29;20123;-80
2024/04/02 05:34:16;;;;;;;2.10;0.68;;;15.20;99.90;;;;;;4899697;29;20114;-80
2024/04/02 05:36:42;;;;;;;1.65;0.75;;;15.20;99.90;;;;;;4879991;29;20546;-81
2024/04/02 05:39:08;;;;;;;2.08;0.70;;;15.30;99.90;;;;;;4879625;29;20021;-81
2024/04/02 05:41:33;;;;;;;1.85;0.60;;;15.20;99.90;;;;;;4893191;29;20125;-81
2024/04/02 05:43:59;;;;;;;2.88;1.02;;;15.20;99.90;;;;;;4889120;29;20024;-81
2024/04/02 05:46:25;;;;;;;2.45;0.90;;;15.20;99.90;;;;;;4890077;29;20055;-81
2024/04/02 05:48:50;;;;;;;1.23;0.50;;;15.20;99.90;;;;;;4880609;29;20029;-80
2024/04/02 05:51:16;;;;;;;1.70;0.80;;;15.20;99.90;;;;;;4884166;29;20503;-82
2024/04/02 05:53:43;;;;;;;3.53;0.93;;;15.20;99.90;;;;;;4899150;29;20025;-81
2024/04/02 05:56:09;;;;;;;3.78;1.02;;;15.20;99.90;;;;;;4898122;29;20509;-81
2024/04/02 05:58:34;;;;;;;2.40;0.90;;;15.20;99.90;;;;;;4877902;29;20033;-80
2024/04/02 06:01:07;;;;;;;2.35;0.85;;;15.20;99.90;;;;;;4893246;29;20027;-80
2024/04/02 06:03:33;;;;;;;1.70;0.70;;;15.20;99.90;;;;;;4893272;29;20251;-81
2024/04/02 06:05:59;;;;;;;4.18;0.80;;;15.20;99.90;;;;;;4896632;29;20462;-81
2024/04/02 06:08:25;;;;;;;1.85;0.73;;;15.20;99.90;;;;;;4881941;29;20029;-81
2024/04/02 06:10:51;;;;;;;2.22;0.70;;;15.20;99.90;;;;;;4893230;29;20021;-80
2024/04/02 06:13:17;;;;;;;1.00;0.68;;;15.20;99.90;;;;;;4893010;29;20040;-81
2024/04/02 06:15:44;;;;;;;2.30;1.02;;;15.20;99.90;;;;;;4892989;29;20174;-81
2024/04/02 06:18:09;;;;;;;3.53;0.95;;;15.20;99.90;;;;;;4893109;29;20059;-80
2024/04/02 06:20:35;;;;;;;2.15;0.82;;;15.20;99.90;;;;;;4893258;29;20025;-81
2024/04/02 06:23:01;;;;;;;1.75;0.75;;;15.20;99.90;;;;;;4887541;29;20029;-81
2024/04/02 06:25:26;;;;;;;3.42;1.05;;;15.20;99.90;;;;;;4884674;29;20120;-81
2024/04/02 06:27:52;;;;;;;2.85;0.82;;;15.20;99.90;;;;;;4877941;29;20169;-80
2024/04/02 06:30:18;;;;;;;2.35;0.88;;;15.20;99.90;;;;;;4885055;29;20510;-81
2024/04/02 06:32:44;;;;;;;1.42;0.82;;;15.20;99.90;;;;;;4900455;29;20142;-81
2024/04/02 06:35:10;;;;;;;1.50;0.70;;;15.20;99.90;;;;;;4877402;29;20021;-81
2024/04/02 06:37:35;;;;;;;2.85;0.80;;;15.20;99.90;;;;;;4898526;29;20029;-82
2024/04/02 06:40:01;;;;;;;3.03;1.05;;;15.20;99.90;;;;;;4878570;29;20021;-81
2024/04/02 06:42:27;;;;;;;2.58;0.98;;;15.20;99.90;;;;;;4892247;29;20522;-80
2024/04/02 06:44:54;;;;;;;2.13;0.82;;;15.20;99.90;;;;;;4895201;29;20029;-80
2024/04/02 06:47:20;;;;;;;1.42;0.70;;;15.20;99.90;;;;;;4884191;29;20025;-81
2024/04/02 06:49:46;;;;;;;2.20;0.70;;;15.20;99.90;;;;;;4900589;29;20505;-81
2024/04/02 06:52:11;;;;;;;3.25;1.13;;;15.20;99.90;;;;;;4892510;29;20406;-80
2024/04/02 06:54:37;;;;;;;6.40;1.23;;;15.20;99.90;;;;;;4892549;29;20029;-81
2024/04/02 06:57:02;;;;;;;2.15;0.80;;;15.20;99.90;;;;;;4885987;29;20025;-80
2024/04/02 06:59:29;;;;;;;4.53;1.00;;;15.20;99.90;;;;;;4893235;29;20340;-81
2024/04/02 07:01:55;;;;;;;3.88;0.93;;;15.20;99.90;;;;;;4879345;29;20033;-81
2024/04/02 07:04:20;;;;;;;3.55;0.98;;;15.20;99.90;;;;;;4876470;29;20372;-81
2024/04/02 07:06:46;;;;;;;2.90;0.90;;;15.20;99.90;;;;;;4900643;29;20028;-81
2024/04/02 07:09:11;;;;;;;1.85;0.70;;;15.20;99.90;;;;;;4897168;29;20025;-81
2024/04/02 07:11:37;;;;;;;2.03;0.80;;;15.20;99.90;;;;;;4881083;29;20116;-81
2024/04/02 07:14:03;;;;;;;2.08;0.98;;;15.20;99.90;;;;;;4877029;29;20029;-81
2024/04/02 07:16:28;;;;;;;3.50;0.98;;;15.20;99.90;;;;;;4877313;29;20036;-81
2024/04/02 07:18:54;;;;;;;3.50;1.20;;;15.20;99.90;;;;;;4900448;29;20505;-81
2024/04/02 07:21:20;;;;;;;3.67;1.00;;;15.20;99.90;;;;;;4906040;29;20024;-81
2024/04/02 07:23:45;;;;;;;4.20;1.10;;;15.20;99.90;;;;;;4877362;29;20438;-80
2024/04/02 07:26:11;;;;;;;2.50;0.90;;;15.20;99.90;;;;;;4904701;29;20031;-81
2024/04/02 07:28:36;;;;;;;2.85;1.00;;;15.20;99.90;;;;;;4881362;29;20025;-81
2024/04/02 07:31:03;;;;;;;3.00;1.10;;;15.20;99.90;;;;;;4892187;29;20040;-81
2024/04/02 07:33:28;;;;;;;2.15;0.82;;;15.20;99.90;;;;;;4899849;29;20104;-81
2024/04/02 07:35:58;;;;;;;3.03;1.08;;;15.20;99.90;;;;;;4887005;29;20034;-81
2024/04/02 07:38:23;;;;;;;2.88;1.10;;;15.20;99.90;;;;;;4887580;29;20084;-81
2024/04/02 07:40:49;;;;;;;3.47;0.93;;;15.20;99.90;;;;;;4880336;29;20072;-81
2024/04/02 07:43:16;;;;;;;2.88;1.00;;;15.10;99.90;;;;;;4895649;29;20037;-80
2024/04/02 07:45:41;;;;;;;4.45;0.90;;;15.10;99.90;;;;;;4903498;29;20376;-81
2024/04/02 07:48:07;;;;;;;2.97;0.90;;;15.20;99.90;;;;;;4895899;29;20128;-81
2024/04/02 07:50:37;;;;;;;2.35;0.98;;;15.20;99.90;;;;;;4884669;29;20594;-81
2024/04/02 07:53:02;;;;;;;2.65;0.98;;;15.20;99.90;;;;;;4898262;29;20033;-81
2024/04/02 07:55:28;;;;;;;1.63;0.70;;;15.10;99.90;;;;;;4891178;29;20032;-81
2024/04/02 07:57:53;;;;;;;2.83;1.00;;;15.20;99.90;;;;;;4881269;29;20145;-80
2024/04/02 08:00:19;;;;;;;2.20;1.00;;;15.10;99.90;;;;;;4883946;29;20104;-81
2024/04/02 08:02:48;;;;;;;3.05;0.95;;;15.20;99.90;;;;;;4902978;29;20549;-81
2024/04/02 08:05:15;;;;;;;3.80;0.90;;;15.20;99.90;;;;;;4881042;29;20083;-80
2024/04/02 08:07:47;;;;;;;2.50;0.82;;;15.20;99.90;;;;;;4881191;29;20041;-80
2024/04/02 08:10:13;;;;;;;2.78;1.25;;;15.20;99.90;;;;;;4891181;29;20055;-81
2024/04/02 08:12:39;;;;;;;5.60;1.10;;;15.20;99.90;;;;;;4895160;29;20511;-81
2024/04/02 08:15:05;;;;;;;4.15;1.15;;;15.20;99.90;;;;;;4890642;29;20029;-81
2024/04/02 08:17:31;;;;;;;2.90;1.20;;;15.20;99.90;;;;;;4891743;29;20475;-81
2024/04/02 08:19:57;;;;;;;2.58;0.75;;;15.20;99.90;;;;;;4897771;29;20029;-81
2024/04/02 08:22:22;;;;;;;2.20;0.85;;;15.20;99.90;;;;;;4893854;29;20025;-81
2024/04/02 08:24:53;;;;;;;4.20;1.00;;;15.10;99.90;;;;;;4882748;29;20029;-81
2024/04/02 08:27:19;;;;;;;3.92;1.00;;;15.10;99.90;;;;;;4897482;29;20032;-81
2024/04/02 08:29:45;;;;;;;2.75;1.27;;;15.20;99.90;;;;;;4903263;29;20033;-80
2024/04/02 08:32:10;;;;;;;2.88;0.95;;;15.20;99.90;;;;;;4887298;29;20033;-81
2024/04/02 08:34:36;;;;;;;2.05;0.95;;;15.10;99.90;;;;;;4887817;29;20116;-80
2024/04/02 08:37:02;;;;;;;2.00;1.02;;;15.10;99.90;;;;;;4883540;29;20071;-81
2024/04/02 08:39:27;;;;;;;4.03;1.33;;;15.10;99.90;;;;;;4893159;29;20061;-81
2024/04/02 08:42:03;;;;;;;3.00;0.90;;;15.10;99.90;;;;;;4880029;29;20033;-80
2024/04/02 08:44:33;;;;;;;3.97;0.90;;;15.10;99.90;;;;;;4894337;29;20540;-81
2024/04/02 08:47:00;;;;;;;3.45;1.13;;;15.20;99.90;;;;;;4909062;29;20033;-81
2024/04/02 08:49:26;;;;;;;3.58;1.00;;;15.20;99.90;;;;;;4873571;29;20032;-81
2024/04/02 08:51:55;;;;;;;3.67;1.00;;;15.20;99.90;;;;;;4879905;29;20041;-81
2024/04/02 08:54:21;;;;;;;2.50;0.85;;;15.20;99.90;;;;;;4885181;29;20041;-81
2024/04/02 08:56:47;;;;;;;2.83;0.90;;;15.10;99.90;;;;;;4887827;29;20033;-81
2024/04/02 08:59:15;;;;;;;3.33;0.90;;;15.20;99.90;;;;;;4894959;29;20080;-81
2024/04/02 09:01:42;;;;;;;4.32;0.88;;;15.10;99.90;;;;;;4894163;29;20025;-81
2024/04/02 09:04:09;;;;;;;2.83;1.10;;;15.10;99.90;;;;;;4883989;29;20645;-81
2024/04/02 09:06:35;;;;;;;2.75;0.98;;;15.10;99.90;;;;;;4894380;29;20502;-81
2024/04/02 09:09:04;;;;;;;2.65;0.93;;;15.20;99.90;;;;;;4894449;29;20121;-81
2024/04/02 09:11:32;;;;;;;2.30;0.90;;;15.10;99.90;;;;;;4894049;29;20033;-80
2024/04/02 09:14:02;;;;;;;4.65;1.38;;;15.20;99.90;;;;;;4889452;29;20037;-81
2024/04/02 09:16:32;;;;;;;2.17;0.85;;;15.10;99.90;;;;;;4890798;29;20021;-80
2024/04/02 09:19:00;;;;;;;3.42;1.10;;;15.20;99.90;;;;;;4882050;29;20033;-81
2024/04/02 09:21:29;;;;;;;3.58;1.10;;;15.20;99.90;;;;;;4899328;29;20036;-80
2024/04/02 09:23:55;;;;;;;4.30;1.17;;;15.20;99.90;;;;;;4878741;29;20041;-81
2024/04/02 09:26:23;;;;;;;3.33;0.90;;;15.10;99.90;;;;;;4887180;29;20025;-81
2024/04/02 09:28:49;;;;;;;2.40;1.02;;;15.10;99.90;;;;;;4884026;29;20021;-81
2024/04/02 09:31:15;;;;;;;2.97;1.30;;;15.20;99.90;;;;;;4886490;29;20036;-81
2024/04/02 09:33:41;;;;;;;3.83;1.05;;;15.10;99.90;;;;;;4894072;29;20051;-81
2024/04/02 09:36:12;;;;;;;3.20;0.90;;;15.10;99.90;;;;;;4882758;29;20080;-81
2024/04/02 09:38:40;;;;;;;2.80;1.05;;;15.10;99.90;;;;;;4873226;29;20085;-81
2024/04/02 09:41:06;;;;;;;3.97;1.00;;;15.10;99.90;;;;;;4901451;29;20439;-83
2024/04/02 09:43:36;;;;;;;2.58;1.05;;;15.10;99.90;;;;;;4907676;29;20417;-81
2024/04/02 09:46:03;;;;;;;2.00;1.00;;;15.10;99.90;;;;;;4879016;29;20546;-82
2024/04/02 09:48:31;;;;;;;2.25;0.95;;;15.10;99.90;;;;;;4893493;29;20115;-81
2024/04/02 09:50:57;;;;;;;3.72;1.13;;;15.10;99.90;;;;;;4909040;29;20403;-80
2024/04/02 09:53:28;;;;;;;3.00;1.10;;;15.10;99.90;;;;;;4883581;29;20543;-81
2024/04/02 09:55:55;;;;;;;2.88;1.00;;;15.10;99.90;;;;;;4893153;29;20084;-82
2024/04/02 09:58:22;;;;;;;3.13;0.80;;;15.10;99.90;;;;;;4892918;29;20040;-82
2024/04/02 10:00:53;;;;;;;3.78;1.30;;;15.20;99.90;;;;;;4900315;29;20032;-81
2024/04/02 10:03:22;;;;;;;4.30;1.38;;;15.20;99.90;;;;;;4880910;29;20490;-82
2024/04/02 10:05:51;;;;;;;3.40;1.23;;;15.10;99.90;;;;;;4887825;29;20037;-82
2024/04/02 10:08:16;;;;;;;4.47;1.20;;;15.20;99.90;;;;;;4892772;29;20120;-82
2024/04/02 10:10:42;;;;;;;4.18;1.10;;;15.20;99.90;;;;;;4900147;29;20124;-80
2024/04/02 10:13:08;;;;;;;2.78;1.17;;;15.10;99.90;;;;;;4884517;29;20471;-82
2024/04/02 10:15:34;;;;;;;6.72;1.52;;;15.10;99.90;;;;;;4878353;29;20463;-82
2024/04/02 10:18:01;;;;;;;5.78;1.33;;;15.10;99.90;;;;;;4892329;29;20440;-81
2024/04/02 10:20:30;;;;;;;2.75;1.00;;;15.20;99.90;;;;;;4897447;29;20027;-81
2024/04/02 10:22:57;;;;;;;3.75;1.20;;;15.20;99.90;;;;;;4893859;29;20036;-82
2024/04/02 10:25:28;;;;;;;3.92;1.17;;;15.10;99.90;;;;;;4896919;29;20040;-82
2024/04/02 10:27:59;;;;;;;3.90;1.23;;;15.10;99.90;;;;;;4878961;29;20083;-82
2024/04/02 10:30:27;;;;;;;2.50;1.08;;;15.10;99.90;;;;;;4876598;29;20025;-82
2024/04/02 10:32:54;;;;;;;3.58;1.08;;;15.20;99.90;;;;;;4884207;29;20032;-82
2024/04/02 10:35:28;;;;;;;3.65;1.10;;;15.10;99.90;;;;;;4900306;29;20119;-82
2024/04/02 10:37:58;;;;;;;3.53;1.15;;;15.10;99.90;;;;;;4877689;29;20029;-82
2024/04/02 10:40:25;;;;;;;3.85;1.23;;;15.10;99.90;;;;;;4876630;29;20097;-82
2024/04/02 10:42:51;;;;;;;5.25;1.30;;;15.20;99.90;;;;;;4885369;29;20136;-82
2024/04/02 10:45:18;;;;;;;3.90;1.17;;;15.10;99.90;;;;;;4892074;29;20033;-82
2024/04/02 10:47:51;;;;;;;3.35;1.27;;;15.20;99.90;;;;;;4892111;29;20037;-82
2024/04/02 10:50:19;;;;;;;4.72;1.20;;;15.10;99.90;;;;;;4895844;29;20120;-82
2024/04/02 10:52:45;;;;;;;4.53;1.10;;;15.10;99.90;;;;;;4879835;29;20150;-82
2024/04/02 10:55:11;;;;;;;6.22;1.15;;;15.20;99.90;;;;;;4893219;29;20542;-82
2024/04/02 10:57:38;;;;;;;4.55;1.10;;;15.20;99.90;;;;;;4892168;29;20093;-82
2024/04/02 11:00:14;;;;;;;3.13;0.93;;;15.20;99.90;;;;;;4879385;29;20074;-81
2024/04/02 11:02:41;;;;;;;3.25;1.10;;;15.20;99.90;;;;;;4880666;29;20521;-82
2024/04/02 11:05:16;;;;;;;3.20;0.98;;;15.20;99.90;;;;;;4892206;29;20037;-82
2024/04/02 11:07:43;;;;;;;3.83;1.20;;;15.10;99.90;;;;;;4892121;29;20033;-80
2024/04/02 11:10:09;;;;;;;2.88;0.98;;;15.20;99.90;;;;;;4883521;29;20065;-81
2024/04/02 11:12:35;;;;;;;2.10;0.80;;;15.10;99.90;;;;;;4885036;29;20462;-82
2024/04/02 11:15:01;;;;;;;4.95;1.38;;;15.10;99.90;;;;;;4880152;29;20052;-81
2024/04/02 11:17:27;;;;;;;2.13;1.10;;;15.10;99.90;;;;;;4895432;29;20060;-82
2024/04/02 11:19:53;;;;;;;2.85;1.10;;;15.20;99.90;;;;;;4881123;29;20032;-82
2024/04/02 11:25:11;;;;;;;3.03;1.20;;;15.20;99.90;;;;;;4881163;29;20036;-82
2024/04/02 11:27:37;;;;;;;3.13;1.08;;;15.20;99.90;;;;;;4895397;29;20482;-82
2024/04/02 11:30:03;;;;;;;2.92;0.95;;;15.20;99.90;;;;;;4903037;29;20503;-82
2024/04/02 11:32:29;;;;;;;4.10;1.15;;;15.20;99.90;;;;;;4880397;29;20036;-82
2024/04/02 11:35:15;;;;;;;3.67;1.15;;;15.20;99.90;;;;;;4895122;29;20037;-82
2024/04/02 11:37:41;;;;;;;3.85;1.00;;;15.20;99.90;;;;;;4881080;29;20056;-82
2024/04/02 11:40:09;;;;;;;3.63;1.10;;;15.10;99.90;;;;;;4895220;29;20513;-82
2024/04/02 11:42:35;;;;;;;3.13;1.20;;;15.20;99.90;;;;;;4886059;29;20025;-82
2024/04/02 11:45:01;;;;;;;2.83;1.15;;;15.20;99.90;;;;;;4887853;29;20036;-82
2024/04/02 11:47:30;;;;;;;4.28;1.13;;;15.20;99.90;;;;;;4894477;29;20032;-80
2024/04/02 11:49:55;;;;;;;3.40;1.03;;;15.20;99.90;;;;;;4880065;29;20036;-82
2024/04/02 11:52:21;;;;;;;2.55;1.00;;;15.20;99.90;;;;;;4893257;29;20288;-82
2024/04/02 11:54:47;;;;;;;2.63;1.10;;;15.20;99.90;;;;;;4894357;29;20025;-82
2024/04/02 12:00:13;;;;;;;5.50;1.20;;;15.20;99.90;;;;;;4880172;29;20170;-81
2024/04/02 12:02:43;;;;;;;1.85;1.00;;;15.20;99.90;;;;;;4893106;29;20033;-81
2024/04/02 12:05:09;;;;;;;3.72;1.10;;;15.20;99.90;;;;;;4878871;29;20029;-81
2024/04/02 12:07:36;;;;;;;3.10;1.00;;;15.20;99.90;;;;;;4894053;29;20037;-82
2024/04/02 12:10:04;;;;;;;3.00;0.93;;;15.20;99.90;;;;;;4894103;29;20036;-82
2024/04/02 12:12:30;;;;;;;2.75;0.88;;;15.20;99.90;;;;;;4892903;29;20040;-82
2024/04/02 12:14:57;;;;;;;5.60;1.20;;;15.20;99.90;;;;;;4878738;29;20029;-82
2024/04/02 12:17:23;;;;;;;2.47;1.20;;;15.20;99.90;;;;;;4885866;29;20027;-82
2024/04/02 12:19:55;;;;;;;3.03;1.30;;;15.20;99.90;;;;;;4893803;29;20021;-82
2024/04/02 12:22:21;;;;;;;2.80;1.10;;;15.20;99.90;;;;;;4885344;29;20158;-82
2024/04/02 12:24:47;;;;;;;3.05;1.00;;;15.20;99.90;;;;;;4893910;29;20033;-82
2024/04/02 12:27:12;;;;;;;3.75;1.10;;;15.20;99.90;;;;;;4893867;29;20033;-82
2024/04/02 12:29:39;;;;;;;2.75;1.02;;;15.20;99.90;;;;;;4878119;29;20498;-82
2024/04/02 12:32:07;;;;;;;3.95;1.05;;;15.20;99.90;;;;;;4876501;29;20044;-82
2024/04/02 12:34:33;;;;;;;7.72;1.65;;;15.10;99.90;;;;;;4892180;29;20118;-78
2024/04/02 12:37:02;;;;;;;13.93;2.25;;;15.00;99.90;;;;;;4878946;29;20025;-75
2024/04/02 12:39:28;;;;;;;9.15;1.48;;;15.00;99.90;;;;;;4893342;29;20116;-81
2024/04/02 12:41:54;;;;;;;5.50;1.60;;;15.00;99.90;;;;;;4878016;29;20051;-81
2024/04/02 12:44:20;;;;;;;11.38;1.50;;;14.80;99.90;;;;;;4878199;29;20036;-76
2024/04/02 12:46:45;;;;;;;10.10;1.67;;;14.80;99.90;;;;;;4877918;29;20029;-77
2024/04/02 12:49:12;;;;;;;9.05;1.70;;;14.70;99.90;;;;;;4891352;29;20026;-82
2024/04/02 12:51:38;;;;;;;9.13;1.77;;;14.60;99.90;;;;;;4874455;29;20037;-81
2024/04/02 12:54:05;;;;;;;8.02;1.55;;;;;;;;;;4875107;29;20029;-81
2024/04/02 12:56:31;;;;;;;4.78;1.35;;;14.60;99.90;;;;;;4893292;29;20123;-82
2024/04/02 12:58:57;;;;;;;12.27;1.92;;;14.70;99.90;;;;;;4892434;29;20136;-81
2024/04/02 13:01:24;;;;;;;8.15;2.08;;;14.70;99.90;;;;;;4901060;29;20029;-81
2024/04/02 13:03:50;;;;;;;12.95;2.00;;;14.60;99.90;;;;;;4878889;29;20104;-82
2024/04/02 13:06:16;;;;;;;9.40;2.00;;;14.50;99.90;;;;;;4892943;29;20398;-81
2024/04/02 13:08:44;;;;;;;12.48;1.95;;;14.60;99.90;;;;;;4877860;29;20025;-82
2024/04/02 13:11:11;;;;;;;5.85;1.73;;;14.70;99.90;;;;;;4877811;29;20424;-82
2024/04/02 13:13:39;;;;;;;8.45;2.00;;;14.70;99.90;;;;;;4878513;29;20029;-82
2024/04/02 13:16:30;;;;;;;11.63;1.77;;;14.80;99.90;;;;;;4892900;29;20029;-81
2024/04/02 13:19:04;;;;;;;8.00;1.75;;;14.90;99.90;;;;;;4894437;29;20025;-81
2024/04/02 13:21:31;;;;;;;8.93;1.60;;;14.90;99.90;;;;;;4877075;29;20538;-82
2024/04/02 13:23:57;;;;;;;8.93;2.00;;;14.90;99.90;;;;;;4892705;29;20021;-81
2024/04/02 13:26:24;;;;;;;6.28;1.50;;;15.00;99.90;;;;;;4869502;29;20077;-81
2024/04/02 13:29:09;;;;;;;5.43;1.50;;;15.00;99.90;;;;;;4891701;29;20017;-82
2024/04/02 13:31:35;;;;;;;9.77;1.80;;;15.00;99.90;;;;;;4891711;29;20111;-82
2024/04/02 13:34:02;;;;;;;5.20;1.70;;;15.10;99.90;;;;;;4876899;29;20115;-81
2024/04/02 13:36:28;;;;;;;6.47;1.38;;;15.10;99.90;;;;;;4876602;29;20375;-81
2024/04/02 13:38:55;;;;;;;5.32;1.45;;;15.00;99.90;;;;;;4876445;29;20095;-82
2024/04/02 13:41:23;;;;;;;8.77;1.75;;;15.10;99.90;;;;;;4892064;29;20067;-81
2024/04/02 13:43:49;;;;;;;5.18;1.73;;;15.10;99.90;;;;;;4892341;29;20040;-81
2024/04/02 13:46:17;;;;;;;5.70;1.60;;;15.10;99.90;;;;;;4890410;29;20037;-82
2024/04/02 13:48:43;;;;;;;5.70;1.45;;;15.10;99.90;;;;;;4892516;29;20032;-81
2024/04/02 13:51:17;;;;;;;5.80;1.45;;;15.10;99.90;;;;;;4890181;29;20029;-81
2024/04/02 13:53:45;;;;;;;6.50;1.48;;;15.20;99.90;;;;;;4875565;29;20033;-81
2024/04/02 13:56:13;;;;;;;6.72;1.50;;;15.20;99.90;;;;;;4892113;29;20028;-82
2024/04/02 13:58:40;;;;;;;3.95;1.30;;;15.10;99.90;;;;;;4891822;29;20020;-79
2024/04/02 14:01:06;;;;;;;6.20;1.42;;;15.10;99.90;;;;;;4875915;29;20029;-82
2024/04/02 14:03:34;;;;;;;5.88;1.63;;;15.20;99.90;;;;;;4877673;29;20029;-82
2024/04/02 14:06:04;;;;;;;5.25;1.70;;;15.10;99.90;;;;;;4877523;29;20025;-80
2024/04/02 14:08:30;;;;;;;4.32;1.25;;;15.20;99.90;;;;;;4872406;29;20030;-81
2024/04/02 14:10:57;;;;;;;7.22;1.90;;;15.20;99.90;;;;;;4873888;29;20040;-81
2024/04/02 14:13:23;;;;;;;5.40;1.50;;;15.20;99.90;;;;;;4877358;29;20523;-82
2024/04/02 14:15:49;;;;;;;5.88;1.42;;;15.10;99.90;;;;;;4891024;29;20025;-82
2024/04/02 14:18:18;;;;;;;6.18;1.42;;;15.20;99.90;;;;;;4877605;29;20109;-82
2024/04/02 14:21:04;;;;;;;4.27;1.40;;;15.20;99.90;;;;;;4891750;29;20578;-82
2024/04/02 14:23:31;;;;;;;4.45;1.50;;;15.20;99.90;;;;;;4869276;29;20745;-82
2024/04/02 14:25:58;;;;;;;6.70;1.90;;;15.10;99.90;;;;;;4890940;29;20094;-82
2024/04/02 14:28:25;;;;;;;5.40;1.55;;;15.20;99.90;;;;;;4877439;29;20058;-82
2024/04/02 14:30:51;;;;;;;6.68;1.70;;;15.10;99.90;;;;;;4877314;29;20037;-82
2024/04/02 14:33:18;;;;;;;3.00;1.20;;;15.20;99.90;;;;;;4891550;29;20121;-82
2024/04/02 14:35:50;;;;;;;4.85;1.50;;;15.20;99.90;;;;;;4873885;29;20065;-81
2024/04/02 14:38:16;;;;;;;4.10;1.52;;;15.10;99.90;;;;;;4891849;29;20025;-82
2024/04/02 14:40:43;;;;;;;3.90;1.35;;;15.10;99.90;;;;;;4891877;29;20021;-82
2024/04/02 14:43:10;;;;;;;5.07;1.55;;;15.20;99.90;;;;;;4889816;29;20029;-84
2024/04/02 14:45:36;;;;;;;4.03;1.30;;;15.20;99.90;;;;;;4885700;29;20028;-82
2024/04/02 14:48:02;;;;;;;5.82;1.50;;;15.20;99.90;;;;;;4883125;29;20033;-79
2024/04/02 14:50:29;;;;;;;3.90;1.15;;;15.20;99.90;;;;;;4894581;29;20112;-82
2024/04/02 14:52:55;;;;;;;5.43;1.45;;;15.20;99.90;;;;;;4895383;29;20376;-82
2024/04/02 14:55:21;;;;;;;5.32;1.13;;;15.10;99.90;;;;;;4879925;29;20021;-81
2024/04/02 14:57:48;;;;;;;4.32;1.10;;;15.20;99.90;;;;;;4894824;29;20501;-82
2024/04/02 15:00:15;;;;;;;2.75;1.27;;;15.20;99.90;;;;;;4878319;29;20037;-81
2024/04/02 15:02:41;;;;;;;4.22;1.40;;;15.20;99.90;;;;;;4871976;29;20025;-82
2024/04/02 15:05:09;;;;;;;2.38;0.98;;;15.20;99.90;;;;;;4895636;29;20040;-82
2024/04/02 15:07:35;;;;;;;4.07;1.30;;;15.20;99.90;;;;;;4888009;29;20375;-81
2024/04/02 15:10:01;;;;;;;4.28;1.13;;;15.10;99.90;;;;;;4903143;29;20035;-81
2024/04/02 15:12:27;;;;;;;3.90;1.25;;;15.20;99.90;;;;;;4890271;29;20035;-82
2024/04/02 15:14:52;;;;;;;3.00;1.00;;;15.10;99.90;;;;;;4881283;29;20029;-82
2024/04/02 15:17:18;;;;;;;3.30;1.10;;;15.20;99.90;;;;;;4895758;29;20025;-82
2024/04/02 15:19:44;;;;;;;4.97;1.30;;;15.20;99.90;;;;;;4890957;29;20041;-82
2024/04/02 15:22:10;;;;;;;4.47;1.10;;;15.20;99.90;;;;;;4883802;29;20021;-82
2024/04/02 15:24:35;;;;;;;2.22;1.15;;;15.10;99.90;;;;;;4895561;29;20029;-82
2024/04/02 15:27:02;;;;;;;5.00;1.25;;;15.20;99.90;;;;;;4895508;29;20025;-81
2024/04/02 15:29:27;;;;;;;3.85;1.10;;;15.10;99.90;;;;;;4881045;29;20040;-82
2024/04/02 15:31:53;;;;;;;4.07;1.15;;;15.10;99.90;;;;;;4901528;29;20033;-82
2024/04/02 15:34:19;;;;;;;2.90;1.17;;;15.20;99.90;;;;;;4903087;29;20064;-82
2024/04/02 15:36:45;;;;;;;2.95;1.15;;;15.20;99.90;;;;;;4877126;29;20053;-82
2024/04/02 15:39:11;;;;;;;3.65;1.30;;;15.10;99.90;;;;;;4878452;29;20029;-82
2024/04/02 15:41:38;;;;;;;5.03;1.10;;;15.20;99.90;;;;;;4899296;29;20025;-82
2024/04/02 15:44:03;;;;;;;2.78;1.10;;;15.10;99.90;;;;;;4887384;29;20362;-82
2024/04/02 15:46:30;;;;;;;4.38;1.30;;;15.10;99.90;;;;;;4876572;29;20022;-81
2024/04/02 15:48:57;;;;;;;2.97;1.10;;;15.10;99.90;;;;;;4890833;29;20104;-82
2024/04/02 15:51:22;;;;;;;2.70;0.90;;;15.10;99.90;;;;;;4887942;29;20029;-81
2024/04/02 15:53:48;;;;;;;3.40;1.08;;;15.10;99.90;;;;;;4900261;29;20083;-81
2024/04/02 15:56:14;;;;;;;2.80;0.98;;;15.10;99.90;;;;;;4889190;29;20037;-81
2024/04/02 15:58:39;;;;;;;4.28;1.10;;;15.10;99.90;;;;;;4879219;29;20452;-82
2024/04/02 16:01:07;;;;;;;3.92;1.17;;;15.10;99.90;;;;;;4894587;29;20061;-80
2024/04/02 16:03:33;;;;;;;2.67;1.10;;;15.10;99.90;;;;;;4872988;29;20036;-82
2024/04/02 16:06:10;;;;;;;4.30;1.40;;;15.10;99.90;;;;;;4894943;29;20029;-82
2024/04/02 16:08:38;;;;;;;4.65;1.35;;;15.10;99.90;;;;;;4880891;29;20028;-82
2024/04/02 16:11:07;;;;;;;3.15;1.23;;;15.10;99.90;;;;;;4897657;29;20124;-82
2024/04/02 16:13:34;;;;;;;3.22;1.08;;;15.10;99.90;;;;;;4871576;29;20029;-81
2024/04/02 16:16:04;;;;;;;4.38;1.30;;;15.10;99.90;;;;;;4887254;29;20033;-81
2024/04/02 16:18:31;;;;;;;2.83;0.93;;;15.10;99.90;;;;;;4879088;29;20563;-82
2024/04/02 16:20:57;;;;;;;4.45;1.15;;;15.10;99.90;;;;;;4886415;29;20028;-82
2024/04/02 16:23:26;;;;;;;3.90;1.27;;;15.10;99.90;;;;;;4894166;29;20025;-82